createdAt,value
2019-03-24T00:02:00.311Z,3.20
2019-03-24T00:04:31.307Z,3.20
2019-03-24T00:07:02.127Z,3.40
2019-03-24T00:09:32.830Z,4.07
2019-03-24T00:12:03.362Z,3.50
2019-03-24T00:14:33.848Z,3.80
2019-03-24T00:17:04.551Z,3.50
2019-03-24T00:19:35.359Z,3.07
2019-03-24T00:22:06.803Z,4.20
2019-03-24T00:24:37.579Z,3.50
2019-03-24T00:27:08.763Z,2.40
2019-03-24T00:29:39.375Z,2.93
2019-03-24T00:32:10.212Z,2.93
2019-03-24T00:34:40.852Z,2.83
2019-03-24T00:37:11.495Z,3.90
2019-03-24T00:39:42.444Z,2.80
2019-03-24T00:42:12.967Z,2.90
2019-03-24T00:44:43.487Z,2.90
2019-03-24T00:47:14.018Z,2.80
2019-03-24T00:49:44.985Z,3.37
2019-03-24T00:52:15.661Z,2.40
2019-03-24T00:54:46.138Z,3.43
2019-03-24T00:57:16.635Z,2.70
2019-03-24T00:59:46.978Z,2.80
2019-03-24T01:02:17.396Z,3.03
2019-03-24T01:04:47.983Z,2.90
2019-03-24T01:07:19.581Z,3.00
2019-03-24T01:09:50.152Z,3.30
2019-03-24T01:12:21.119Z,2.70
2019-03-24T01:14:51.968Z,3.40
2019-03-24T01:17:22.519Z,3.17
2019-03-24T01:19:53.898Z,3.33
2019-03-24T01:22:24.682Z,3.50
2019-03-24T01:24:55.150Z,2.67
2019-03-24T01:27:26.147Z,2.67
2019-03-24T01:29:56.713Z,2.93
2019-03-24T01:32:27.419Z,3.50
2019-03-24T01:34:58.087Z,2.63
2019-03-24T01:37:28.447Z,3.20
2019-03-24T01:39:59.130Z,3.30
2019-03-24T01:42:29.824Z,3.63
2019-03-24T01:45:00.114Z,2.93
2019-03-24T01:47:30.452Z,3.50
2019-03-24T01:50:01.023Z,3.53
2019-03-24T01:52:31.655Z,2.73
2019-03-24T01:55:02.065Z,3.90
2019-03-24T01:57:33.119Z,3.13
2019-03-24T02:00:05.414Z,3.60
2019-03-24T02:02:36.204Z,4.00
2019-03-24T02:05:07.126Z,3.00
2019-03-24T02:07:37.727Z,3.53
2019-03-24T02:10:08.891Z,3.97
2019-03-24T02:12:39.946Z,4.00
2019-03-24T02:15:11.322Z,3.50
2019-03-24T02:17:41.802Z,3.87
2019-03-24T02:20:12.667Z,3.80
2019-03-24T02:22:43.477Z,3.63
2019-03-24T02:25:13.991Z,2.63
2019-03-24T02:27:44.659Z,3.37
2019-03-24T02:30:15.285Z,3.93
2019-03-24T02:32:46.044Z,3.77
2019-03-24T02:35:17.217Z,3.30
2019-03-24T02:37:47.889Z,4.13
2019-03-24T02:40:18.180Z,3.40
2019-03-24T02:42:49.403Z,3.50
2019-03-24T02:45:21.511Z,3.57
2019-03-24T02:47:53.373Z,3.00
2019-03-24T02:50:24.108Z,3.13
2019-03-24T02:52:54.585Z,3.63
2019-03-24T02:55:25.616Z,4.00
2019-03-24T02:57:56.306Z,3.00
2019-03-24T03:00:27.174Z,3.60
2019-03-24T03:02:58.219Z,3.40
2019-03-24T03:05:28.769Z,4.37
2019-03-24T03:07:59.330Z,3.70
2019-03-24T03:10:30.287Z,3.13
2019-03-24T03:13:01.127Z,4.67
2019-03-24T03:15:32.061Z,3.80
2019-03-24T03:18:02.842Z,3.73
2019-03-24T03:20:34.049Z,3.40
2019-03-24T03:23:04.914Z,3.63
2019-03-24T03:25:35.724Z,4.00
2019-03-24T03:28:06.425Z,3.30
2019-03-24T03:30:37.605Z,3.07
2019-03-24T03:33:08.344Z,3.07
2019-03-24T03:35:39.036Z,2.80
2019-03-24T03:38:09.749Z,2.93
2019-03-24T03:40:40.522Z,3.10
2019-03-24T03:43:11.357Z,3.00
2019-03-24T03:45:42.407Z,4.07
2019-03-24T03:48:13.225Z,2.93
2019-03-24T03:50:43.677Z,3.30
2019-03-24T03:53:14.352Z,3.10
2019-03-24T03:55:44.996Z,3.03
2019-03-24T03:58:15.587Z,3.60
2019-03-24T04:00:46.098Z,3.67
2019-03-24T04:03:17.358Z,3.67
2019-03-24T04:05:48.303Z,3.80
2019-03-24T04:08:18.915Z,3.17
2019-03-24T04:10:50.130Z,3.43
2019-03-24T04:13:20.816Z,3.07
2019-03-24T04:15:51.803Z,3.27
2019-03-24T04:18:22.514Z,3.97
2019-03-24T04:20:53.816Z,4.10
2019-03-24T04:23:24.318Z,3.80
2019-03-24T04:25:55.203Z,4.10
2019-03-24T04:28:25.762Z,4.30
2019-03-24T04:30:56.929Z,4.77
2019-03-24T04:33:27.692Z,4.40
2019-03-24T04:35:58.462Z,4.73
2019-03-24T04:38:29.152Z,4.70
2019-03-24T04:41:00.333Z,4.20
2019-03-24T04:43:31.158Z,5.20
2019-03-24T04:46:01.897Z,4.40
2019-03-24T04:48:32.713Z,4.87
2019-03-24T04:51:03.883Z,4.40
2019-03-24T04:53:34.671Z,4.00
2019-03-24T04:56:06.068Z,5.07
2019-03-24T04:58:36.797Z,4.80
2019-03-24T05:01:07.386Z,4.53
2019-03-24T05:03:44.521Z,4.70
2019-03-24T05:06:15.987Z,5.10
2019-03-24T05:08:46.869Z,5.67
2019-03-24T05:11:17.673Z,5.70
2019-03-24T05:13:51.859Z,5.80
2019-03-24T05:16:22.603Z,5.10
2019-03-24T05:18:53.070Z,5.80
2019-03-24T05:21:24.121Z,6.37
2019-03-24T05:23:54.949Z,5.43
2019-03-24T05:26:25.315Z,4.80
2019-03-24T05:28:55.912Z,5.83
2019-03-24T05:31:26.907Z,5.93
2019-03-24T05:33:57.505Z,6.27
2019-03-24T05:36:28.530Z,5.27
2019-03-24T05:38:59.310Z,5.60
2019-03-24T05:41:30.237Z,5.70
2019-03-24T05:44:01.672Z,6.30
2019-03-24T05:46:33.258Z,5.30
2019-03-24T05:49:04.103Z,6.10
2019-03-24T05:51:34.662Z,5.90
2019-03-24T05:54:05.976Z,6.00
2019-03-24T05:56:36.950Z,6.17
2019-03-24T05:59:07.742Z,6.50
2019-03-24T06:01:38.638Z,5.33
2019-03-24T06:04:09.170Z,6.20
2019-03-24T06:06:41.238Z,5.23
2019-03-24T06:09:12.485Z,4.83
2019-03-24T06:11:43.175Z,6.00
2019-03-24T06:14:13.829Z,5.67
2019-03-24T06:16:44.744Z,5.80
2019-03-24T06:19:15.345Z,5.20
2019-03-24T06:21:46.212Z,5.50
2019-03-24T06:24:18.185Z,5.10
2019-03-24T06:26:48.962Z,5.30
2019-03-24T06:29:19.994Z,6.20
2019-03-24T06:31:50.743Z,5.90
2019-03-24T06:34:22.104Z,5.50
2019-03-24T06:36:52.622Z,6.23
2019-03-24T06:39:23.434Z,6.77
2019-03-24T06:41:54.298Z,6.10
2019-03-24T06:44:34.202Z,6.83
2019-03-24T06:47:05.294Z,8.00
2019-03-24T06:49:35.731Z,7.63
2019-03-24T06:52:07.402Z,9.50
2019-03-24T06:54:38.020Z,7.87
2019-03-24T06:57:08.513Z,7.67
2019-03-24T06:59:39.834Z,7.07
2019-03-24T07:02:11.065Z,7.87
2019-03-24T07:04:41.847Z,7.90
2019-03-24T07:07:12.585Z,8.70
2019-03-24T07:09:43.321Z,9.37
2019-03-24T07:12:14.098Z,8.40
2019-03-24T07:14:44.921Z,7.83
2019-03-24T07:17:15.422Z,7.33
2019-03-24T07:19:45.829Z,7.30
2019-03-24T07:22:16.931Z,6.00
2019-03-24T07:24:47.630Z,6.20
2019-03-24T07:27:18.375Z,7.20
2019-03-24T07:29:49.254Z,6.17
2019-03-24T07:32:20.257Z,6.10
2019-03-24T07:34:51.601Z,6.03
2019-03-24T07:37:22.679Z,6.70
2019-03-24T07:39:53.193Z,5.63
2019-03-24T07:42:24.001Z,5.83
2019-03-24T07:44:54.888Z,6.43
2019-03-24T07:47:25.673Z,5.90
2019-03-24T07:49:56.358Z,6.23
2019-03-24T07:52:27.761Z,5.93
2019-03-24T07:54:58.293Z,5.30
2019-03-24T07:57:28.930Z,6.27
2019-03-24T07:59:59.723Z,6.37
2019-03-24T08:02:30.301Z,6.07
2019-03-24T08:05:00.966Z,6.20
2019-03-24T08:07:32.433Z,5.47
2019-03-24T08:10:03.009Z,5.30
2019-03-24T08:12:33.759Z,6.40
2019-03-24T08:15:04.546Z,6.13
2019-03-24T08:17:36.953Z,6.10
2019-03-24T08:20:09.158Z,5.70
2019-03-24T08:22:39.985Z,6.63
2019-03-24T08:25:12.582Z,6.23
2019-03-24T08:27:43.481Z,5.27
2019-03-24T08:30:14.413Z,5.20
2019-03-24T08:32:47.687Z,5.53
2019-03-24T08:35:18.173Z,5.97
2019-03-24T08:37:50.210Z,4.57
2019-03-24T08:40:21.014Z,5.30
2019-03-24T08:42:51.773Z,5.20
2019-03-24T08:45:29.703Z,6.13
2019-03-24T08:48:00.765Z,4.40
2019-03-24T08:50:31.660Z,5.03
2019-03-24T08:53:02.365Z,6.10
2019-03-24T08:55:32.955Z,6.23
2019-03-24T08:58:03.873Z,5.77
2019-03-24T09:00:35.089Z,5.97
2019-03-24T09:03:07.018Z,5.80
2019-03-24T09:05:37.714Z,4.67
2019-03-24T09:08:14.041Z,5.33
2019-03-24T09:10:45.708Z,5.50
2019-03-24T09:13:16.247Z,5.07
2019-03-24T09:15:47.073Z,5.60
2019-03-24T09:18:17.748Z,5.53
2019-03-24T09:20:48.182Z,6.13
2019-03-24T09:23:20.754Z,6.30
2019-03-24T09:25:51.834Z,5.10
2019-03-24T09:28:22.626Z,4.73
2019-03-24T09:30:53.347Z,5.63
2019-03-24T09:33:23.702Z,5.10
2019-03-24T09:35:54.429Z,5.40
2019-03-24T09:38:25.910Z,4.60
2019-03-24T09:40:56.698Z,4.57
2019-03-24T09:43:27.437Z,4.20
2019-03-24T09:45:58.700Z,4.47
2019-03-24T09:48:33.962Z,4.53
2019-03-24T09:51:04.719Z,5.33
2019-03-24T09:53:35.756Z,6.60
2019-03-24T09:56:06.365Z,6.10
2019-03-24T09:58:37.690Z,5.83
2019-03-24T10:01:08.580Z,5.97
2019-03-24T10:03:39.402Z,5.97
2019-03-24T10:06:10.350Z,6.50
2019-03-24T10:08:47.041Z,5.70
2019-03-24T10:11:13.913Z,5.60
2019-03-24T10:13:45.161Z,5.33
2019-03-24T10:16:16.241Z,4.93
2019-03-24T10:18:46.983Z,4.87
2019-03-24T10:21:18.190Z,4.50
2019-03-24T10:23:48.605Z,3.00
2019-03-24T10:26:19.201Z,3.30
2019-03-24T10:28:49.961Z,3.50
2019-03-24T10:31:20.518Z,3.10
2019-03-24T10:33:51.491Z,3.40
2019-03-24T10:36:22.815Z,3.10
2019-03-24T10:38:53.942Z,3.63
2019-03-24T10:41:24.725Z,3.10
2019-03-24T10:43:55.374Z,3.10
2019-03-24T10:46:26.340Z,2.60
2019-03-24T10:48:57.088Z,2.33
2019-03-24T10:51:27.973Z,2.90
2019-03-24T10:53:58.549Z,3.43
2019-03-24T10:56:29.725Z,3.23
2019-03-24T10:59:00.437Z,4.57
2019-03-24T11:01:31.389Z,6.70
2019-03-24T11:04:02.110Z,4.40
2019-03-24T11:06:35.309Z,3.60
2019-03-24T11:09:06.551Z,3.87
2019-03-24T11:11:37.638Z,3.07
2019-03-24T11:14:08.294Z,2.50
2019-03-24T11:16:38.871Z,2.07
2019-03-24T11:19:09.301Z,3.23
2019-03-24T11:21:40.201Z,2.53
2019-03-24T11:24:10.658Z,2.80
2019-03-24T11:26:41.286Z,3.23
2019-03-24T11:29:12.920Z,2.93
2019-03-24T11:31:43.563Z,2.83
2019-03-24T11:34:14.451Z,3.50
2019-03-24T11:36:45.392Z,3.53
2019-03-24T11:39:16.121Z,3.03
2019-03-24T11:41:46.758Z,3.30
2019-03-24T11:44:29.390Z,3.10
2019-03-24T11:47:00.277Z,2.50
2019-03-24T11:49:31.031Z,2.73
2019-03-24T11:52:02.577Z,2.50
2019-03-24T11:54:33.295Z,2.97
2019-03-24T11:57:03.677Z,1.87
2019-03-24T11:59:34.417Z,1.70
2019-03-24T12:02:05.233Z,1.93
2019-03-24T12:04:35.809Z,1.50
2019-03-24T12:07:07.524Z,2.50
2019-03-24T12:09:38.089Z,2.87
2019-03-24T12:12:08.873Z,3.63
2019-03-24T12:14:39.881Z,3.97
2019-03-24T12:17:10.527Z,3.90
2019-03-24T12:19:42.587Z,3.77
2019-03-24T12:22:13.567Z,3.53
2019-03-24T12:24:44.485Z,3.03
2019-03-24T12:27:15.628Z,3.33
2019-03-24T12:29:46.592Z,3.67
2019-03-24T12:32:17.439Z,3.20
2019-03-24T12:34:48.365Z,4.07
2019-03-24T12:39:59.890Z,3.17
2019-03-24T12:42:30.432Z,3.03
2019-03-24T12:45:02.263Z,3.00
2019-03-24T12:47:33.058Z,2.40
2019-03-24T12:50:08.932Z,2.00
2019-03-24T12:52:36.367Z,2.40
2019-03-24T12:55:07.512Z,2.83
2019-03-24T12:57:38.099Z,2.80
2019-03-24T13:00:10.637Z,2.50
2019-03-24T13:02:41.354Z,2.80
2019-03-24T13:05:12.693Z,2.60
2019-03-24T13:07:43.853Z,2.50
2019-03-24T13:10:14.561Z,3.00
2019-03-24T13:12:45.132Z,3.13
2019-03-24T13:15:16.468Z,2.60
2019-03-24T13:17:47.285Z,2.40
2019-03-24T13:20:26.700Z,2.57
2019-03-24T13:22:50.252Z,2.20
2019-03-24T13:25:20.982Z,2.30
2019-03-24T13:27:51.965Z,2.47
2019-03-24T13:30:23.273Z,2.70
2019-03-24T13:32:53.841Z,2.60
2019-03-24T13:35:25.017Z,2.50
2019-03-24T13:37:56.187Z,3.30
2019-03-24T13:40:26.916Z,2.90
2019-03-24T13:42:57.886Z,3.70
2019-03-24T13:45:29.115Z,3.90
2019-03-24T13:47:59.630Z,4.50
2019-03-24T13:50:31.717Z,4.17
2019-03-24T13:53:02.674Z,4.47
2019-03-24T13:55:36.018Z,5.10
2019-03-24T13:58:07.841Z,4.03
2019-03-24T14:00:38.592Z,4.27
2019-03-24T14:03:10.511Z,4.50
2019-03-24T14:05:41.483Z,3.80
2019-03-24T14:08:12.149Z,4.40
2019-03-24T14:10:43.122Z,3.33
2019-03-24T14:13:13.724Z,3.90
2019-03-24T14:15:44.365Z,3.53
2019-03-24T14:18:15.087Z,3.87
2019-03-24T14:20:46.159Z,4.50
2019-03-24T14:23:16.756Z,4.80
2019-03-24T14:25:47.385Z,4.83
2019-03-24T14:28:18.722Z,4.73
2019-03-24T14:30:50.033Z,4.67
2019-03-24T14:33:21.065Z,5.00
2019-03-24T14:35:52.106Z,5.37
2019-03-24T14:38:22.801Z,5.43
2019-03-24T14:40:53.352Z,4.70
2019-03-24T14:43:25.766Z,3.87
2019-03-24T14:45:56.532Z,3.67
2019-03-24T14:48:27.282Z,4.27
2019-03-24T14:50:58.250Z,4.07
2019-03-24T14:53:28.747Z,4.83
2019-03-24T14:55:59.302Z,4.73
2019-03-24T14:58:30.590Z,4.83
2019-03-24T15:01:01.165Z,4.10
2019-03-24T15:03:32.026Z,3.83
2019-03-24T15:06:03.009Z,3.90
2019-03-24T15:08:33.635Z,3.20
2019-03-24T15:11:04.489Z,3.33
2019-03-24T15:13:36.060Z,2.70
2019-03-24T15:16:06.943Z,2.80
2019-03-24T15:18:37.738Z,2.97
2019-03-24T15:21:08.454Z,3.20
2019-03-24T15:23:39.549Z,2.83
2019-03-24T15:26:10.250Z,2.90
2019-03-24T15:28:42.052Z,3.50
2019-03-24T15:31:12.771Z,2.77
2019-03-24T15:33:43.626Z,2.77
2019-03-24T15:36:17.161Z,3.30
2019-03-24T15:38:48.129Z,3.13
2019-03-24T15:41:18.985Z,4.30
2019-03-24T15:43:50.772Z,4.10
2019-03-24T15:46:29.024Z,2.60
2019-03-24T15:48:59.948Z,3.37
2019-03-24T15:51:30.688Z,2.23
2019-03-24T15:54:01.368Z,2.07
2019-03-24T15:56:36.133Z,2.17
2019-03-24T15:59:06.737Z,2.00
2019-03-24T16:01:37.435Z,2.40
2019-03-24T16:04:08.401Z,2.67
2019-03-24T16:06:39.118Z,3.07
2019-03-24T16:09:10.011Z,3.07
2019-03-24T16:11:41.107Z,3.93
2019-03-24T16:14:11.969Z,4.93
2019-03-24T16:16:42.469Z,3.40
2019-03-24T16:19:13.506Z,3.63
2019-03-24T16:21:46.447Z,3.67
2019-03-24T16:24:17.088Z,4.37
2019-03-24T16:26:47.966Z,3.50
2019-03-24T16:29:18.681Z,4.50
2019-03-24T16:31:53.782Z,3.60
2019-03-24T16:34:24.510Z,3.63
2019-03-24T16:36:55.230Z,3.23
2019-03-24T16:39:25.933Z,2.77
2019-03-24T16:41:56.669Z,2.60
2019-03-24T16:44:32.320Z,2.40
2019-03-24T16:47:03.099Z,2.27
2019-03-24T16:49:33.863Z,2.73
2019-03-24T16:52:15.321Z,2.23
2019-03-24T16:54:46.061Z,2.23
2019-03-24T16:57:17.086Z,3.03
2019-03-24T16:59:57.137Z,3.40
2019-03-24T17:02:28.298Z,2.20
2019-03-24T17:04:59.511Z,2.67
2019-03-24T17:07:33.203Z,2.40
2019-03-24T17:10:08.309Z,1.90
2019-03-24T17:12:39.127Z,2.13
2019-03-24T17:15:10.658Z,3.60
2019-03-24T17:17:42.012Z,2.53
2019-03-24T17:20:12.971Z,3.40
2019-03-24T17:22:44.134Z,2.00
2019-03-24T17:25:15.297Z,2.97
2019-03-24T17:27:46.077Z,2.40
2019-03-24T17:30:16.656Z,2.40
2019-03-24T17:32:47.673Z,2.30
2019-03-24T17:35:18.229Z,2.60
2019-03-24T17:37:48.806Z,2.37
2019-03-24T17:40:20.605Z,2.30
2019-03-24T17:42:51.270Z,2.00
2019-03-24T17:45:21.996Z,2.67
2019-03-24T17:47:52.982Z,2.57
2019-03-24T17:50:25.487Z,2.53
2019-03-24T17:52:56.950Z,2.30
2019-03-24T17:55:29.930Z,2.90
2019-03-24T17:58:00.319Z,2.07
2019-03-24T18:00:46.566Z,2.50
2019-03-24T18:03:17.280Z,3.07
2019-03-24T18:05:48.190Z,2.73
2019-03-24T18:08:19.425Z,2.63
2019-03-24T18:10:50.417Z,2.30
2019-03-24T18:13:22.773Z,2.80
2019-03-24T18:15:54.152Z,2.23
2019-03-24T18:18:25.231Z,2.30
2019-03-24T18:20:56.393Z,1.97
2019-03-24T18:23:27.527Z,2.13
2019-03-24T18:25:58.324Z,2.53
2019-03-24T18:28:29.718Z,2.37
2019-03-24T18:31:00.754Z,1.70
2019-03-24T18:33:31.692Z,2.40
2019-03-24T18:36:02.425Z,1.63
2019-03-24T18:38:33.327Z,2.03
2019-03-24T18:41:04.046Z,2.43
2019-03-24T18:43:34.696Z,1.90
2019-03-24T18:46:05.470Z,1.73
2019-03-24T18:48:36.717Z,2.23
2019-03-24T18:51:07.209Z,2.20
2019-03-24T18:53:38.146Z,2.00
2019-03-24T18:56:08.980Z,2.00
2019-03-24T18:58:39.921Z,2.07
2019-03-24T19:01:11.531Z,1.90
2019-03-24T19:03:43.443Z,1.77
2019-03-24T19:06:14.680Z,2.00
2019-03-24T19:08:45.243Z,1.60
2019-03-24T19:11:16.204Z,1.93
2019-03-24T19:13:47.358Z,1.70
2019-03-24T19:16:17.872Z,2.07
2019-03-24T19:18:48.476Z,1.90
2019-03-24T19:21:19.164Z,1.90
2019-03-24T19:23:50.324Z,1.73
2019-03-24T19:26:21.232Z,1.90
2019-03-24T19:28:52.613Z,1.90
2019-03-24T19:31:23.082Z,2.13
2019-03-24T19:33:53.793Z,1.77
2019-03-24T19:36:24.905Z,2.00
2019-03-24T19:38:55.653Z,2.20
2019-03-24T19:41:26.731Z,2.30
2019-03-24T19:43:57.703Z,2.20
2019-03-24T19:46:28.434Z,1.80
2019-03-24T19:48:58.974Z,2.10
2019-03-24T19:51:30.108Z,1.70
2019-03-24T19:54:01.107Z,2.10
2019-03-24T19:56:31.748Z,2.20
2019-03-24T19:59:03.003Z,2.27
2019-03-24T20:01:33.577Z,2.10
2019-03-24T20:04:04.704Z,2.43
2019-03-24T20:06:35.378Z,2.30
2019-03-24T20:09:08.888Z,2.10
2019-03-24T20:11:39.781Z,2.30
2019-03-24T20:14:10.604Z,2.43
2019-03-24T20:16:41.657Z,2.50
2019-03-24T20:19:12.331Z,2.40
2019-03-24T20:21:43.229Z,2.60
2019-03-24T20:24:14.040Z,2.10
2019-03-24T20:26:44.745Z,3.37
2019-03-24T20:29:15.966Z,2.93
2019-03-24T20:31:47.361Z,2.87
2019-03-24T20:34:18.371Z,2.83
2019-03-24T20:36:49.014Z,2.90
2019-03-24T20:39:20.093Z,2.77
2019-03-24T20:41:51.052Z,3.03
2019-03-24T20:44:36.385Z,2.73
2019-03-24T20:47:07.433Z,2.93
2019-03-24T20:49:38.209Z,2.50
2019-03-24T20:52:08.800Z,2.77
2019-03-24T20:54:39.637Z,2.63
2019-03-24T20:57:10.164Z,2.53
2019-03-24T20:59:40.886Z,2.50
2019-03-24T21:02:11.882Z,2.50
2019-03-24T21:04:42.918Z,2.63
2019-03-24T21:07:13.623Z,2.77
2019-03-24T21:09:46.602Z,2.80
2019-03-24T21:12:17.530Z,2.87
2019-03-24T21:14:48.046Z,2.80
2019-03-24T21:17:19.667Z,2.40
2019-03-24T21:19:50.156Z,2.80
2019-03-24T21:22:20.806Z,2.97
2019-03-24T21:24:51.603Z,3.23
2019-03-24T21:27:22.389Z,2.90
2019-03-24T21:29:53.186Z,2.90
2019-03-24T21:32:24.793Z,3.03
2019-03-24T21:34:55.389Z,3.00
2019-03-24T21:37:25.940Z,2.70
2019-03-24T21:39:57.195Z,3.30
2019-03-24T21:42:28.483Z,3.30
2019-03-24T21:44:59.270Z,2.73
2019-03-24T21:47:30.142Z,3.17
2019-03-24T21:50:00.751Z,3.33
2019-03-24T21:52:31.246Z,2.80
2019-03-24T21:55:02.225Z,3.20
2019-03-24T21:57:32.967Z,3.00
2019-03-24T22:00:03.802Z,2.60
2019-03-24T22:02:34.712Z,2.93
2019-03-24T22:05:05.489Z,2.83
2019-03-24T22:07:36.062Z,3.70
2019-03-24T22:10:07.173Z,3.17
2019-03-24T22:12:37.646Z,2.87
2019-03-24T22:15:08.785Z,2.67
2019-03-24T22:17:39.586Z,2.83
2019-03-24T22:20:10.283Z,3.00
2019-03-24T22:22:40.787Z,2.87
2019-03-24T22:25:11.773Z,2.73
2019-03-24T22:27:42.223Z,2.60
2019-03-24T22:30:13.081Z,4.17
2019-03-24T22:32:44.045Z,3.83
2019-03-24T22:35:14.903Z,3.30
2019-03-24T22:37:45.845Z,3.03
2019-03-24T22:40:31.919Z,3.30
2019-03-24T22:43:01.649Z,3.20
2019-03-24T22:45:32.127Z,3.20
2019-03-24T22:48:03.252Z,3.27
2019-03-24T22:50:34.261Z,3.63
2019-03-24T22:53:04.951Z,3.23
2019-03-24T22:55:35.937Z,3.03
2019-03-24T22:58:06.870Z,3.30
2019-03-24T23:00:57.484Z,2.80
2019-03-24T23:03:28.176Z,2.77
2019-03-24T23:05:59.100Z,2.83
2019-03-24T23:08:30.159Z,2.93
2019-03-24T23:11:00.681Z,2.70
2019-03-24T23:13:31.425Z,2.90
2019-03-24T23:16:02.601Z,2.60
2019-03-24T23:18:33.094Z,2.70
2019-03-24T23:21:03.819Z,2.77
2019-03-24T23:23:34.950Z,2.80
2019-03-24T23:26:05.577Z,2.80
2019-03-24T23:28:36.237Z,2.77
2019-03-24T23:31:07.129Z,2.40
2019-03-24T23:33:38.052Z,2.60
2019-03-24T23:36:08.822Z,2.50
2019-03-24T23:38:40.018Z,2.30
2019-03-24T23:41:10.831Z,3.13
2019-03-24T23:43:41.560Z,2.80
2019-03-24T23:46:12.982Z,3.03
2019-03-24T23:48:43.885Z,3.50
2019-03-24T23:51:14.584Z,3.00
2019-03-24T23:53:45.619Z,3.40
2019-03-24T23:56:17.586Z,3.40
2019-03-24T23:58:48.008Z,3.57
